Date,TemperatureHighF,TemperatureAvgF,TemperatureLowF,DewpointHighF,DewpointAvgF,DewpointLowF,HumidityHigh,HumidityAvg,HumidityLow,PressureMaxIn,PressureMinIn,WindSpeedMaxMPH,WindSpeedAvgMPH,GustSpeedMaxMPH,PrecipitationSumIn
2013-1-2,28.0,26.6,26.0,23.0,21.8,20.0,88,81,77,0.00,40.00,1,1,3,0.00
2013-1-3,28.0,26.4,25.0,22.0,20.5,18.0,88,78,71,0.00,40.00,2,1,3,0.00
2013-1-4,29.0,27.1,23.0,22.0,21.6,21.0,91,79,74,0.00,40.00,6,2,10,0.00
2013-1-5,29.0,27.5,25.0,27.0,24.3,22.0,95,87,77,0.00,40.00,2,0,5,0.00
2013-1-6,31.0,28.3,24.0,26.0,25.1,23.0,95,87,78,0.00,40.00,6,1,7,0.00
2013-1-7,43.0,33.8,28.0,36.0,30.0,26.0,95,85,73,0.00,40.00,6,2,15,0.00
2013-1-8,43.0,35.6,33.0,34.0,33.0,31.0,100,91,67,0.00,40.00,3,1,10,0.00
2013-1-9,46.0,37.9,31.0,37.0,32.2,27.0,100,81,57,0.00,40.00,6,2,9,0.00
2013-1-10,40.0,33.2,23.0,24.0,21.7,19.0,84,63,52,0.00,40.00,6,3,10,0.00
2013-1-11,34.0,24.5,17.0,19.0,17.4,14.0,91,75,53,0.00,40.00,2,0,6,0.00
2013-1-12,27.0,18.7,12.0,17.0,13.6,10.0,91,81,65,0.00,40.00,6,1,10,0.00
2013-1-13,26.0,19.1,12.0,16.0,12.7,8.0,87,76,62,0.00,40.00,6,2,10,0.00
2013-1-14,29.0,23.6,21.0,20.0,18.3,17.0,87,79,68,0.00,40.00,7,1,14,0.00
2013-1-15,26.0,18.6,15.0,20.0,15.6,13.0,91,87,77,0.00,40.00,5,1,8,0.00
2013-1-16,29.0,23.0,14.0,23.0,18.8,12.0,91,83,74,0.00,40.00,2,1,5,0.00
2013-1-17,28.0,27.4,26.0,23.0,22.6,21.0,84,81,77,0.00,40.00,3,1,7,0.00
2013-1-18,29.0,26.6,24.0,23.0,21.8,20.0,88,81,77,0.00,40.00,3,1,6,0.00
2013-1-19,31.0,27.4,26.0,24.0,22.6,21.0,84,81,74,0.00,40.00,2,1,6,0.00
2013-1-20,27.0,23.3,18.0,23.0,19.8,15.0,88,86,84,0.00,40.00,5,1,9,0.00
2013-1-21,24.0,23.2,21.0,22.0,19.9,19.0,91,86,80,0.00,40.00,5,2,9,0.00
2013-1-22,24.0,22.3,20.0,19.0,17.6,16.0,88,81,74,0.00,40.00,2,1,7,0.00
2013-1-23,28.0,25.1,22.0,24.0,21.1,18.0,88,84,77,0.00,40.00,1,0,5,0.00
2013-1-24,29.0,23.8,16.0,25.0,20.5,15.0,95,87,77,0.00,40.00,7,2,9,0.00
2013-1-25,34.0,28.1,23.0,26.0,23.6,21.0,91,83,69,0.00,40.00,5,1,8,0.00
2013-1-26,33.0,30.8,28.0,28.0,26.6,25.0,95,84,75,0.00,40.00,5,1,6,0.00
2013-1-27,31.0,29.4,28.0,26.0,25.5,25.0,88,85,81,0.00,40.00,2,0,3,0.00
2013-1-28,34.0,31.1,26.0,28.0,26.2,24.0,92,82,75,0.00,40.00,3,1,6,0.00
2013-1-29,30.0,29.0,28.0,28.0,26.6,26.0,92,91,84,0.00,40.00,6,2,14,0.00
2013-1-31,48.0,40.0,33.0,36.0,34.0,31.0,92,79,62,0.00,40.00,3,1,6,0.00
2013-2-1,46.0,38.2,31.0,34.0,31.8,29.0,96,78,60,0.00,40.00,12,3,16,0.00
2013-2-2,36.0,29.5,26.0,34.0,27.8,25.0,100,93,75,0.00,40.00,5,1,7,0.00
2013-2-3,35.0,30.0,26.0,31.0,28.3,25.0,100,93,81,0.00,40.00,13,4,18,0.00
2013-2-4,40.0,33.8,29.0,34.0,31.1,28.0,96,90,75,0.00,40.00,7,2,12,0.00
2013-2-5,42.0,36.3,33.0,36.0,33.4,31.0,96,89,79,0.00,40.00,13,2,16,0.00
2013-2-6,46.0,39.1,32.0,36.0,34.4,31.0,96,84,65,0.00,40.00,3,1,8,0.00
2013-2-7,52.0,41.5,33.0,37.0,29.9,24.0,96,68,33,0.00,40.00,7,3,13,0.00
2013-2-8,51.0,38.4,31.0,26.0,24.7,23.0,75,59,34,0.00,40.00,6,3,13,0.00
2013-2-9,51.0,40.6,33.0,30.0,26.9,24.0,72,58,42,0.00,40.00,7,4,13,0.00
2013-2-10,35.0,33.2,31.0,28.0,26.8,26.0,81,76,72,0.00,40.00,3,2,10,0.00
2013-2-11,41.0,35.5,25.0,30.0,28.8,24.0,95,77,62,0.00,40.00,12,5,17,0.00
2013-2-12,46.0,36.2,30.0,33.0,30.6,28.0,96,81,57,0.00,40.00,10,2,15,0.00
2013-2-13,56.0,42.0,30.0,35.0,28.1,25.0,96,63,29,0.00,40.00,7,3,18,0.00
2013-2-14,52.0,40.2,30.0,34.0,29.8,27.0,88,68,44,0.00,40.00,12,3,20,0.00
2013-2-15,51.0,38.3,28.0,33.0,30.5,26.0,96,76,49,0.00,40.00,7,2,12,0.00
2013-2-16,56.0,38.8,28.0,37.0,30.5,24.0,96,76,29,0.00,40.00,9,3,22,0.00
2013-2-17,54.0,39.9,27.0,31.0,25.6,20.0,92,62,27,0.00,40.00,9,2,14,0.00
2013-2-18,42.0,35.4,28.0,29.0,26.8,25.0,88,71,57,0.00,40.00,2,1,7,0.00
2013-2-19,52.0,38.6,29.0,30.0,26.5,23.0,88,64,33,0.00,40.00,7,2,9,0.00
2013-2-20,47.0,34.9,24.0,28.0,24.9,22.0,91,69,41,0.00,40.00,6,2,8,0.00
2013-2-21,48.0,37.5,28.0,32.0,27.7,24.0,88,69,45,0.00,40.00,6,2,12,0.00
2013-2-22,41.0,36.2,31.0,38.0,32.6,28.0,96,86,67,0.00,40.00,5,2,12,0.00
2013-2-23,52.0,43.1,35.0,30.0,26.9,23.0,78,54,31,0.00,40.00,9,5,18,0.00
2013-2-24,46.0,38.8,32.0,30.0,27.7,25.0,78,64,47,0.00,40.00,10,2,13,0.00
2013-2-25,53.0,40.2,33.0,35.0,28.6,20.0,92,67,28,0.00,40.00,9,3,18,0.00
2013-2-26,51.0,41.1,31.0,26.0,23.5,19.0,81,52,30,0.00,40.00,7,3,13,0.00
2013-2-27,53.0,41.1,29.0,32.0,27.9,26.0,88,62,37,0.00,40.00,7,1,12,0.00
2013-2-28,41.0,38.8,36.0,38.0,35.4,30.0,96,87,75,0.00,40.00,3,1,6,0.00
2013-3-1,67.0,48.4,34.0,46.0,39.1,33.0,100,74,37,0.00,40.00,5,2,8,0.00
2013-3-2,58.0,47.7,37.0,41.0,36.2,21.0,92,67,37,0.00,40.00,13,4,21,0.00
2013-3-3,52.0,44.4,35.0,25.0,20.4,18.0,63,39,25,0.00,40.00,13,5,21,0.00
2013-3-4,50.0,37.9,28.0,27.0,22.7,19.0,77,56,30,0.00,40.00,12,3,16,0.00
2013-3-5,43.0,35.1,29.0,33.0,27.0,24.0,92,73,48,0.00,40.00,9,2,13,0.00
2013-3-6,40.0,35.9,33.0,38.0,34.9,32.0,100,96,92,0.00,40.00,2,0,3,0.00
2013-3-7,54.0,42.7,35.0,40.0,36.1,33.0,100,80,48,0.00,40.00,7,1,10,0.00
2013-3-8,55.0,40.6,30.0,35.0,32.2,29.0,100,76,39,0.00,40.00,9,2,13,0.00
2013-3-9,60.0,43.3,31.0,33.0,28.0,24.0,88,60,24,0.00,40.00,9,2,13,0.00
2013-3-10,60.0,51.7,38.0,34.0,30.7,27.0,70,45,33,0.00,40.00,10,3,14,0.00
2013-3-11,54.0,45.1,32.0,33.0,28.1,23.0,88,55,29,0.00,40.00,7,3,13,0.00
2013-3-12,65.0,51.5,38.0,41.0,37.9,34.0,85,61,39,0.00,40.00,6,2,13,0.00
2013-3-13,64.0,55.5,43.0,43.0,41.3,38.0,82,60,46,0.00,40.00,6,2,10,0.00
2013-3-14,64.0,55.6,46.0,46.0,40.2,31.0,85,58,28,0.00,40.00,5,2,12,0.00
2013-3-15,65.0,54.2,39.0,40.0,37.0,35.0,88,54,35,0.00,40.00,6,3,12,0.00
2013-3-16,60.0,50.1,40.0,40.0,33.4,28.0,85,55,30,0.00,40.00,9,4,21,0.00
2013-3-17,51.0,42.0,34.0,33.0,26.5,20.0,92,59,29,0.00,40.00,8,4,22,0.00
2013-3-18,53.0,41.9,29.0,32.0,24.2,19.0,84,54,25,0.00,40.00,12,5,29,0.00
2013-3-19,49.0,39.8,30.0,34.0,24.7,19.0,96,58,30,0.00,40.00,10,3,14,0.00
2013-3-20,51.0,39.2,33.0,42.0,34.7,20.0,100,86,41,0.00,40.00,8,2,21,0.00
2013-3-21,51.0,41.3,33.0,31.0,24.7,19.0,78,54,27,0.00,40.00,9,3,20,0.00
2013-3-22,50.0,40.1,30.0,26.0,21.9,16.0,78,51,26,0.00,40.00,8,3,16,0.00
2013-3-23,49.0,37.3,30.0,27.0,21.3,19.0,72,54,30,0.00,40.00,9,3,14,0.00
2013-3-24,33.0,28.3,26.0,26.0,23.8,23.0,88,83,75,0.00,40.00,1,0,2,0.00
2013-3-25,55.0,45.4,28.0,31.0,24.2,20.0,81,46,27,0.00,40.00,7,3,16,0.00
2013-3-26,61.0,43.0,32.0,30.0,26.8,25.0,81,57,27,0.00,40.00,7,3,12,0.00
2013-3-27,59.0,51.4,42.0,37.0,34.9,32.0,79,55,35,0.00,40.00,12,3,15,0.00
2013-3-28,63.0,50.3,38.0,40.0,36.6,33.0,85,62,37,0.00,40.00,5,2,10,0.00
2013-3-29,50.0,44.5,40.0,38.0,35.9,34.0,79,72,63,0.00,40.00,5,2,9,0.00
2013-3-30,70.0,58.7,39.0,41.0,30.4,-99.9,78,45,29,0.00,40.00,10,5,18,0.00
2013-3-31,74.0,55.8,40.0,39.0,36.4,34.0,79,53,25,0.00,40.00,7,3,12,0.00
2013-4-1,45.0,45.0,45.0,36.0,36.0,36.0,70,70,70,0.00,40.00,3,3,8,0.00
2013-4-2,50.0,50.0,50.0,37.0,37.0,37.0,60,60,60,0.00,40.00,6,6,13,0.00
2013-4-3,71.0,63.3,50.0,42.0,37.9,35.0,60,40,26,0.00,40.00,6,3,12,0.00
2013-4-4,57.0,51.6,48.0,49.0,43.1,37.0,96,74,47,0.00,40.00,3,1,9,0.00
2013-4-5,63.0,52.9,46.0,48.0,45.3,42.0,100,77,53,0.00,40.00,9,3,13,0.00
2013-4-6,50.0,47.2,45.0,44.0,43.0,42.0,96,85,76,0.00,40.00,2,1,9,0.00
2013-4-8,58.0,50.8,40.0,40.0,37.1,35.0,88,61,45,0.00,40.00,12,5,17,0.00
2013-4-9,60.0,50.8,38.0,38.0,35.2,32.0,78,56,39,0.00,40.00,7,3,12,0.00
2013-4-10,62.0,53.4,42.0,51.0,40.1,32.0,86,63,36,0.00,40.00,12,4,25,0.00
2013-4-11,62.0,52.0,39.0,36.0,30.1,23.0,82,47,25,0.00,40.00,12,5,18,0.00
2013-4-12,53.0,44.0,36.0,39.0,31.3,27.0,82,62,41,0.00,40.00,8,2,18,0.00
2013-4-13,44.0,39.4,37.0,35.0,28.8,21.0,92,68,39,0.00,40.00,13,4,25,0.00
2013-4-15,47.0,45.0,40.0,38.0,36.1,34.0,88,71,60,0.00,40.00,3,2,8,0.00
2013-4-16,56.0,48.8,37.0,36.0,25.2,17.0,92,44,22,0.00,40.00,3,1,8,0.00
2013-4-17,64.0,48.0,33.0,32.0,27.8,25.0,81,50,22,0.00,40.00,6,3,17,0.00
2013-4-18,68.0,54.1,40.0,38.0,35.0,30.0,75,50,31,0.00,40.00,9,3,14,0.00
2013-4-19,66.0,59.7,46.0,39.0,37.5,36.0,73,44,35,0.00,40.00,6,4,16,0.00
2013-4-20,65.0,54.3,44.0,39.0,35.4,31.0,76,51,27,0.00,40.00,10,4,18,0.00
2013-4-21,63.0,52.8,35.0,36.0,31.5,28.0,92,49,27,0.00,40.00,12,4,21,0.00
2013-4-22,64.0,48.5,32.0,33.0,23.3,10.0,88,47,13,0.00,40.00,8,2,13,0.00
2013-4-23,65.0,51.3,38.0,34.0,27.3,21.0,69,43,18,0.00,40.00,8,4,12,0.00
2013-4-24,64.0,45.6,37.0,34.0,30.9,29.0,75,59,26,0.00,40.00,6,2,13,0.00
2013-4-25,77.0,63.7,45.0,38.0,35.2,30.0,55,36,24,0.00,40.00,7,5,17,0.00
2013-4-26,82.0,71.1,47.0,43.0,34.5,28.0,76,31,14,0.00,40.00,9,4,16,0.00
2013-4-27,71.0,57.2,43.0,39.0,36.7,32.0,76,48,23,0.00,40.00,13,4,29,0.00
2013-4-28,68.0,55.1,40.0,40.0,34.4,29.0,88,51,23,0.00,40.00,8,4,21,0.00
2013-4-29,51.0,46.4,43.0,41.0,36.2,24.0,92,70,34,0.00,40.00,9,4,21,0.00
2013-4-30,59.0,51.6,36.0,28.0,22.3,17.0,69,34,20,0.00,40.00,7,4,17,0.00
2013-5-1,63.0,44.7,34.0,29.0,26.0,24.0,72,51,23,0.00,40.00,7,3,12,0.00
2013-5-2,73.0,63.5,40.0,44.0,32.5,26.0,69,34,20,0.00,40.00,6,3,12,0.00
2013-5-3,80.0,66.5,44.0,45.0,37.2,33.0,79,38,18,0.00,40.00,7,2,12,0.00
2013-5-4,80.0,59.3,47.0,43.0,39.0,34.0,82,53,18,0.00,40.00,5,2,10,0.00
2013-5-5,85.0,70.7,43.0,42.0,36.4,31.0,82,34,14,0.00,40.00,14,3,22,0.00
2013-5-6,71.0,56.6,49.0,42.0,38.6,36.0,66,52,33,0.00,40.00,5,2,8,0.00
2013-5-7,94.0,82.8,56.0,49.0,42.2,38.0,54,26,14,0.00,40.00,6,3,12,0.00
2013-5-8,94.0,76.6,58.0,50.0,47.0,43.0,66,39,18,0.00,40.00,6,2,13,0.00
2013-5-9,96.0,76.3,57.0,49.0,40.3,31.0,64,33,11,0.00,40.00,5,3,14,0.00
2013-5-10,94.0,70.0,56.0,48.0,38.3,-99.9,59,38,17,0.00,40.00,6,3,10,0.00
2013-5-11,87.0,70.6,61.0,46.0,43.8,43.0,51,39,22,0.00,40.00,7,4,12,0.00
2013-5-12,78.0,70.9,62.0,52.0,48.9,45.0,64,46,32,0.00,40.00,7,2,15,0.00
2013-5-13,73.0,60.8,50.0,51.0,45.5,35.0,77,58,32,0.00,40.00,7,3,17,0.00
2013-5-14,71.0,55.9,43.0,38.0,33.9,28.0,79,48,21,0.00,40.00,7,4,14,0.00
2013-5-15,69.0,55.7,46.0,37.0,34.4,31.0,67,47,24,0.00,40.00,6,3,9,0.00
2013-5-16,72.0,53.9,51.0,46.0,-3.5,-99.9,76,54,32,0.00,40.00,3,2,7,0.00
2013-6-28,91.0,88.5,80.0,63.0,59.2,57.0,56,38,31,0.00,40.00,3,2,7,0.00
2013-6-29,85.0,77.7,68.0,71.0,65.8,60.0,87,68,46,0.00,40.00,3,2,13,0.00
2013-6-30,96.0,81.1,63.0,64.0,60.5,57.0,90,55,27,0.00,40.00,10,4,15,0.00
2013-7-1,100.0,81.1,65.0,70.0,62.6,57.0,80,56,24,0.00,40.00,3,2,9,0.00
2013-7-2,107.0,89.4,71.0,63.0,57.9,50.0,68,40,15,0.00,40.00,6,3,18,0.00
2013-7-3,97.0,90.8,81.0,47.0,38.2,33.0,29,16,10,0.00,40.00,9,7,17,0.00
2013-7-4,88.0,79.7,67.0,45.0,39.1,34.0,42,25,16,0.00,40.00,10,6,24,0.00
2013-7-5,84.0,78.8,60.0,48.0,46.4,44.0,55,33,27,0.00,40.00,10,7,17,0.00
2013-7-6,91.0,83.3,58.0,53.0,48.1,44.0,69,32,19,0.00,40.00,3,2,10,0.00
2013-7-7,92.0,81.4,62.0,60.0,50.2,44.0,72,38,20,0.00,40.00,7,4,17,0.00
2013-7-8,91.0,76.7,61.0,60.0,50.9,44.0,75,46,19,0.00,40.00,6,4,12,0.00
2013-7-9,94.0,83.6,63.0,60.0,51.1,46.0,72,37,19,0.00,40.00,12,6,18,0.00
2013-7-10,95.0,82.9,66.0,55.0,47.9,34.0,62,33,17,0.00,40.00,10,5,18,0.00
2013-7-11,84.0,74.5,65.0,47.0,38.1,31.0,50,29,15,0.00,40.00,9,5,20,0.00
2013-7-12,75.0,66.9,61.0,40.0,37.4,36.0,40,34,28,0.00,40.00,5,4,10,0.00
2013-7-13,86.0,77.3,53.0,49.0,37.9,29.0,63,27,14,0.00,40.00,9,4,14,0.00
2013-7-14,95.0,78.7,57.0,48.0,39.5,28.0,66,31,9,0.00,40.00,5,2,12,0.00
2013-7-15,90.0,80.6,58.0,44.0,36.9,30.0,59,24,12,0.00,40.00,9,5,17,0.00
2013-7-16,92.0,76.4,55.0,47.0,43.2,38.0,71,36,15,0.00,40.00,6,2,9,0.00
2013-7-17,98.0,86.1,67.0,58.0,51.1,45.0,72,33,19,0.00,40.00,5,3,12,0.00
2013-7-18,99.0,83.8,62.0,52.0,48.4,44.0,62,32,17,0.00,40.00,6,3,13,0.00
2013-7-19,103.0,87.2,66.0,49.0,41.6,31.0,54,25,9,0.00,40.00,6,3,14,0.00
2013-7-20,83.0,71.8,66.0,50.0,48.5,46.0,52,45,27,0.00,40.00,3,2,12,0.00
2013-7-21,101.0,89.3,68.0,48.0,42.6,36.0,40,21,11,0.00,40.00,9,5,22,0.00
2013-7-22,100.0,91.1,69.0,51.0,45.9,37.0,47,23,11,0.00,40.00,12,6,18,0.00
2013-7-23,102.0,87.0,69.0,54.0,47.3,40.0,58,29,13,0.00,40.00,7,2,12,0.00
2013-7-24,101.0,86.6,65.0,52.0,45.7,34.0,58,29,10,0.00,40.00,7,3,12,0.00
2013-7-25,103.0,93.6,69.0,48.0,37.1,27.0,47,16,6,0.00,40.00,8,4,18,0.00
2013-7-26,100.0,84.8,63.0,46.0,38.7,32.0,46,23,9,0.00,40.00,9,5,22,0.00
2013-7-27,94.0,83.7,69.0,44.0,38.1,33.0,37,21,11,0.00,40.00,9,5,18,0.00
2013-7-28,92.0,82.5,62.0,47.0,41.7,38.0,49,26,15,0.00,40.00,6,4,15,0.00
2013-7-29,93.0,74.9,60.0,52.0,48.3,38.0,66,43,14,0.00,40.00,5,3,10,0.00
2013-7-30,94.0,81.2,63.0,54.0,46.2,35.0,64,33,12,0.00,40.00,6,2,12,0.00
2013-7-31,74.0,69.4,64.0,55.0,52.7,49.0,67,55,41,0.00,40.00,3,2,6,0.00
2013-8-1,90.0,76.2,61.0,56.0,53.5,52.0,74,48,27,0.00,40.00,5,3,10,0.00
2013-8-2,81.0,70.0,60.0,57.0,52.9,50.0,86,56,35,0.00,40.00,7,3,14,0.00
2013-8-3,83.0,72.8,60.0,62.0,54.4,50.0,72,54,34,0.00,40.00,12,4,17,0.00
2013-8-4,91.0,75.8,60.0,65.0,57.0,52.0,87,57,26,0.00,40.00,13,4,18,0.00
2013-8-5,98.0,81.8,62.0,63.0,54.7,46.0,93,49,17,0.00,40.00,6,2,10,0.00
2013-8-6,97.0,87.8,65.0,51.0,45.5,37.0,58,26,13,0.00,40.00,7,4,12,0.00
2013-8-7,100.0,82.5,64.0,48.0,45.5,44.0,48,29,15,0.00,40.00,6,3,12,0.00
2013-8-8,94.0,83.2,65.0,51.0,48.2,42.0,56,32,16,0.00,40.00,6,2,12,0.00
2013-8-9,99.0,86.4,68.0,57.0,53.0,49.0,67,35,18,0.00,40.00,7,4,10,0.00
2013-8-10,92.0,81.5,68.0,63.0,59.2,53.0,81,51,27,0.00,40.00,10,4,15,0.00
2013-8-11,78.0,68.4,64.0,62.0,59.0,53.0,86,74,41,0.00,40.00,6,3,12,0.00
2013-8-12,91.0,80.4,61.0,57.0,53.7,50.0,83,44,24,0.00,40.00,10,5,15,0.00
2013-8-13,92.0,81.3,63.0,57.0,52.2,47.0,75,40,23,0.00,40.00,10,5,15,0.00
2013-8-14,91.0,77.8,62.0,58.0,43.9,-99.9,69,45,27,0.00,40.00,3,2,10,0.00
2013-8-15,85.0,78.4,70.0,60.0,55.4,50.0,63,45,38,0.00,40.00,6,3,10,0.00
2013-8-16,88.0,75.3,61.0,57.0,51.7,44.0,77,47,25,0.00,40.00,8,4,15,0.00
2013-8-17,87.0,72.8,64.0,55.0,41.8,-99.9,64,39,25,0.00,40.00,9,4,14,0.00
2013-8-18,92.0,78.7,61.0,52.0,49.3,46.0,64,38,20,0.00,40.00,7,3,12,0.00
2013-8-19,86.0,79.0,61.0,52.0,49.4,46.0,67,38,24,0.00,40.00,9,6,18,0.00
2013-8-20,92.0,81.1,64.0,49.0,42.6,36.0,58,28,14,0.00,40.00,5,3,13,0.00
2013-8-21,89.0,74.5,57.0,56.0,45.6,41.0,66,40,19,0.00,40.00,9,4,14,0.00
2013-8-22,87.0,74.5,59.0,61.0,49.8,43.0,72,45,21,0.00,40.00,2,1,7,0.00
2013-8-23,87.0,77.2,65.0,60.0,56.0,53.0,83,50,33,0.00,40.00,6,3,10,0.00
2013-8-24,86.0,70.8,61.0,52.0,37.0,-99.9,67,36,24,0.00,40.00,6,3,13,0.00
2013-8-25,82.0,71.2,61.0,56.0,49.6,44.0,64,47,30,0.00,40.00,5,3,9,0.00
2013-8-26,78.0,71.3,60.0,57.0,54.9,52.0,74,57,43,0.00,40.00,17,7,22,0.00
2013-8-27,73.0,64.3,58.0,56.0,54.2,53.0,83,70,49,0.00,40.00,2,1,9,0.00
2013-8-28,84.0,78.7,69.0,64.0,57.9,54.0,84,50,35,0.00,40.00,6,3,13,0.00
2013-8-29,74.0,69.0,66.0,60.0,58.8,56.0,80,70,53,0.00,40.00,7,3,17,0.00
2013-8-30,84.0,75.3,58.0,57.0,50.5,47.0,93,45,27,0.00,40.00,6,4,13,0.00
2013-8-31,87.0,67.4,54.0,59.0,41.2,-99.9,80,48,25,0.00,40.00,10,4,18,0.00
2013-9-1,93.0,81.5,58.0,56.0,49.5,44.0,77,37,19,0.00,40.00,7,4,13,0.00
2013-9-2,92.0,80.2,65.0,59.0,53.6,46.0,70,43,21,0.00,40.00,14,5,21,0.00
2013-9-3,89.0,76.6,63.0,61.0,57.7,56.0,89,55,32,0.00,40.00,7,3,15,0.00
2013-9-4,91.0,77.5,64.0,60.0,55.8,54.0,72,50,30,0.00,40.00,9,4,15,0.00
2013-9-5,85.0,76.1,67.0,65.0,59.3,58.0,72,57,41,0.00,40.00,3,2,9,0.00
2013-9-6,71.0,63.9,60.0,63.0,59.1,56.0,93,85,59,0.00,40.00,14,2,22,0.00
2013-9-7,67.0,58.8,58.0,59.0,48.2,-99.9,96,79,70,0.00,40.00,13,4,17,0.00
2013-9-8,85.0,72.2,56.0,58.0,56.1,53.0,93,61,38,0.00,40.00,6,3,14,0.00
2013-9-9,88.0,75.6,61.0,61.0,54.8,51.0,74,51,29,0.00,40.00,8,4,13,0.00
2013-9-10,92.0,75.8,60.0,61.0,54.6,51.0,78,51,25,0.00,40.00,6,2,9,0.00
2013-9-11,94.0,79.0,60.0,61.0,55.9,54.0,80,48,27,0.00,40.00,2,1,7,0.00
2013-9-12,95.0,71.4,62.0,60.0,55.6,53.0,72,59,31,0.00,40.00,3,2,9,0.00
2013-9-13,100.0,83.2,66.0,62.0,55.3,52.0,65,41,20,0.00,40.00,5,2,10,0.00
2013-9-14,96.0,73.2,65.0,67.0,48.5,-99.9,75,51,27,0.00,40.00,3,1,9,0.00
2013-9-15,93.0,80.2,64.0,64.0,56.8,50.0,86,50,24,0.00,40.00,3,1,10,0.00
2013-9-16,80.0,73.0,62.0,58.0,50.7,47.0,86,48,32,0.00,40.00,6,3,15,0.00
2013-9-17,73.0,64.8,56.0,52.0,47.8,42.0,77,55,40,0.00,40.00,8,3,17,0.00
2013-9-18,60.0,58.8,57.0,43.0,41.4,41.0,54,52,49,0.00,40.00,3,2,9,0.00
2013-9-19,73.0,61.6,45.0,48.0,41.9,39.0,82,52,30,0.00,40.00,12,5,18,0.00
2013-9-20,76.0,59.2,44.0,45.0,43.0,40.0,85,59,31,0.00,40.00,6,2,10,0.00
2013-9-21,77.0,64.5,56.0,49.0,32.3,-99.9,74,38,25,0.00,40.00,6,2,12,0.00
2013-9-22,67.0,57.0,47.0,51.0,44.1,40.0,85,64,37,0.00,40.00,8,3,13,0.00
2013-9-23,65.0,56.4,48.0,48.0,46.2,44.0,89,70,51,0.00,40.00,5,2,10,0.00
2013-9-24,68.0,58.2,50.0,46.0,40.5,37.0,82,55,33,0.00,40.00,6,2,13,0.00
2013-9-25,69.0,59.5,47.0,42.0,38.8,35.0,73,49,28,0.00,40.00,9,3,16,0.00
2013-9-26,51.0,48.0,46.0,45.0,42.7,41.0,89,81,73,0.00,40.00,2,1,6,0.00
2013-9-27,58.0,54.1,47.0,47.0,43.0,38.0,89,67,55,0.00,40.00,3,2,9,0.00
2013-9-28,56.0,48.1,48.0,53.0,39.0,-99.9,96,85,86,0.00,40.00,3,2,8,0.00
2013-9-29,62.0,53.0,44.0,51.0,46.0,41.0,96,79,47,0.00,40.00,5,2,15,0.00
2013-9-30,58.0,50.9,45.0,49.0,44.1,40.0,96,78,61,0.00,40.00,7,4,15,0.00
2013-10-1,61.0,54.5,46.0,39.0,38.2,37.0,73,55,42,0.00,40.00,3,2,12,0.00
2013-10-2,55.0,48.5,42.0,47.0,40.2,37.0,96,74,58,0.00,40.00,7,3,14,0.00
2013-10-3,47.0,43.3,40.0,45.0,41.2,38.0,92,91,88,0.00,40.00,3,1,7,0.00
2013-10-9,60.0,56.3,53.0,41.0,39.7,38.0,61,54,43,0.00,40.00,5,3,7,0.00
2013-10-10,65.0,55.7,46.0,39.0,36.0,33.0,70,50,30,0.00,40.00,9,4,20,0.00
2013-10-11,62.0,49.9,40.0,44.0,36.8,33.0,85,64,34,0.00,40.00,6,1,7,0.00
2013-10-12,49.0,48.0,47.0,40.0,40.0,40.0,76,73,70,0.00,40.00,2,1,6,0.00
2013-10-13,65.0,50.9,37.0,43.0,37.8,34.0,92,66,33,0.00,40.00,2,1,7,0.00
2013-10-14,64.0,50.0,35.0,40.0,36.2,31.0,92,64,28,0.00,40.00,6,2,9,0.00
2013-10-15,62.0,52.8,38.0,43.0,37.6,35.0,88,59,37,0.00,40.00,5,2,9,0.00
2013-10-16,67.0,54.1,43.0,44.0,40.5,39.0,89,64,35,0.00,40.00,6,2,9,0.00
2013-10-17,66.0,51.2,38.0,44.0,39.9,36.0,92,69,37,0.00,40.00,5,2,9,0.00
2013-10-18,64.0,51.6,37.0,40.0,38.8,36.0,96,66,40,0.00,40.00,7,3,10,0.00
2013-10-19,65.0,46.6,35.0,44.0,31.5,-99.9,96,68,43,0.00,40.00,3,1,7,0.00
2013-10-20,70.0,54.6,41.0,46.0,41.9,38.0,92,66,34,0.00,40.00,6,2,7,0.00
2013-10-21,51.0,46.1,43.0,43.0,41.6,40.0,89,84,73,0.00,40.00,3,2,8,0.00
2013-10-22,69.0,53.9,40.0,47.0,43.5,38.0,96,71,42,0.00,40.00,3,1,6,0.00
2013-10-23,67.0,52.6,38.0,46.0,42.9,36.0,96,73,45,0.00,40.00,3,1,7,0.00
2013-10-24,66.0,52.9,40.0,46.0,42.5,39.0,96,71,43,0.00,40.00,3,2,7,0.00
2013-10-25,64.0,48.7,37.0,46.0,41.2,36.0,96,78,48,0.00,40.00,5,2,9,0.00
2013-10-26,64.0,47.1,38.0,46.0,32.6,-99.9,96,70,48,0.00,40.00,3,1,6,0.00
2013-10-27,54.0,49.8,42.0,47.0,43.5,38.0,89,79,63,0.00,40.00,3,1,6,0.00
2013-10-28,58.0,52.8,39.0,35.0,26.5,21.0,67,37,24,0.00,40.00,15,5,22,0.00
2013-10-29,55.0,41.8,30.0,31.0,27.4,25.0,84,60,32,0.00,40.00,9,3,13,0.00
2013-10-30,52.0,40.3,28.0,34.0,28.9,25.0,92,67,40,0.00,40.00,12,4,15,0.00
2013-10-31,68.0,52.9,36.0,39.0,36.1,32.0,88,55,33,0.00,40.00,7,3,17,0.00
2013-11-1,61.0,52.2,38.0,40.0,37.4,34.0,85,59,40,0.00,40.00,8,3,12,0.00
2013-11-2,46.0,45.3,45.0,44.0,41.5,39.0,96,86,76,0.00,40.00,1,1,5,0.00
2013-11-4,51.0,39.9,31.0,28.0,24.5,20.0,84,58,30,0.00,40.00,3,2,9,0.00
2013-11-5,43.0,40.2,36.0,33.0,31.7,30.0,81,71,64,0.00,40.00,7,3,12,0.00
2013-11-6,42.0,37.3,32.0,37.0,32.8,30.0,92,83,73,0.00,40.00,5,2,6,0.00
2013-11-7,41.0,38.9,37.0,38.0,37.0,36.0,96,92,85,0.00,40.00,2,2,6,0.00
2013-11-8,54.0,45.8,37.0,41.0,37.4,33.0,96,74,50,0.00,40.00,5,2,10,0.00
2013-11-9,44.0,36.3,30.0,39.0,26.4,-99.9,96,80,70,0.00,40.00,5,1,10,0.00
2013-11-10,42.0,38.3,38.0,37.0,37.0,37.0,96,95,92,0.00,40.00,1,1,3,0.00
2013-11-11,50.0,45.7,42.0,43.0,41.3,41.0,96,85,71,0.00,40.00,1,0,5,0.00
2013-11-12,51.0,47.3,45.0,45.0,43.6,42.0,96,87,76,0.00,40.00,5,1,9,0.00
2013-11-13,58.0,49.9,45.0,45.0,42.7,37.0,92,77,61,0.00,40.00,2,1,6,0.00
2013-11-14,59.0,47.8,37.0,38.0,35.5,32.0,88,64,35,0.00,40.00,7,2,13,0.00
2013-11-15,53.0,44.9,32.0,33.0,30.3,29.0,92,60,39,0.00,40.00,3,2,10,0.00
2013-11-16,40.0,39.0,38.0,37.0,36.0,35.0,88,88,88,0.00,40.00,2,1,10,0.00
2013-11-17,44.0,38.4,31.0,36.0,33.2,28.0,92,82,70,0.00,40.00,5,2,9,0.00
2013-11-18,52.0,42.4,31.0,44.0,38.5,30.0,100,86,68,0.00,40.00,3,1,6,0.00
2013-11-19,55.0,46.1,33.0,42.0,31.4,23.0,96,61,36,0.00,40.00,7,4,21,0.00
2013-11-20,39.0,32.8,24.0,28.0,19.4,13.0,92,61,38,0.00,40.00,10,4,14,0.00
2013-11-21,36.0,28.4,19.0,20.0,18.3,15.0,91,67,41,0.00,40.00,8,2,10,0.00
2013-11-22,36.0,28.5,19.0,21.0,19.1,17.0,91,69,49,0.00,40.00,5,1,8,0.00
2013-11-23,37.0,26.2,18.0,22.0,11.8,-99.9,91,66,49,0.00,40.00,3,1,7,0.00
2013-11-24,24.0,24.0,24.0,20.0,20.0,20.0,84,84,84,0.00,40.00,0,0,1,0.00
2013-11-25,40.0,32.8,22.0,27.0,23.5,20.0,91,70,50,0.00,40.00,3,1,6,0.00
2013-11-26,40.0,31.6,24.0,27.0,25.2,22.0,92,78,59,0.00,40.00,2,1,6,0.00
2013-11-27,41.0,33.1,27.0,30.0,27.2,25.0,92,79,61,0.00,40.00,2,1,6,0.00
2013-11-28,41.0,30.4,22.0,30.0,26.1,21.0,95,84,64,0.00,40.00,9,2,12,0.00
2013-11-29,34.0,30.0,24.0,30.0,27.5,23.0,96,90,81,0.00,40.00,6,1,9,0.00
2013-11-30,36.0,32.3,33.0,32.0,23.8,-99.9,88,81,81,0.00,40.00,6,2,10,0.00
2013-12-1,38.0,34.3,34.0,31.0,31.0,31.0,88,87,85,0.00,40.00,5,3,7,0.00
2013-12-2,42.0,38.0,33.0,36.0,28.4,22.0,96,70,46,0.00,40.00,7,3,15,0.00
2013-12-3,37.0,30.9,23.0,22.0,18.4,16.0,84,61,41,0.00,40.00,6,2,8,0.00
2013-12-4,30.0,21.2,14.0,17.0,13.8,11.0,91,74,50,0.00,40.00,2,1,5,0.00
2013-12-5,24.0,20.2,15.0,13.0,9.9,6.0,91,66,47,0.00,40.00,7,4,12,0.00
2013-12-6,23.0,20.2,17.0,15.0,11.0,2.0,80,67,44,0.00,40.00,2,1,6,0.00
2013-12-7,18.0,14.7,11.0,10.0,8.0,2.0,79,74,70,0.00,40.00,2,1,5,0.00
2013-12-8,22.0,14.2,5.0,9.0,6.1,1.0,83,70,54,0.00,40.00,3,1,7,0.00
2013-12-9,11.0,9.7,9.0,7.0,6.0,5.0,87,84,83,0.00,40.00,2,1,6,0.00
2013-12-10,27.0,19.7,11.0,15.0,11.8,8.0,87,72,55,0.00,40.00,5,1,7,0.00
2013-12-11,29.0,23.7,21.0,19.0,16.7,15.0,80,74,60,0.00,40.00,3,1,7,0.00
2013-12-12,25.0,23.0,23.0,18.0,18.0,18.0,80,80,80,0.00,40.00,1,1,3,0.00
2013-12-13,34.0,29.4,23.0,24.0,22.4,20.0,88,75,63,0.00,40.00,6,2,9,0.00
2013-12-14,29.0,28.3,28.0,24.0,24.0,24.0,84,83,81,0.00,40.00,1,0,2,0.00
2013-12-15,26.0,24.0,24.0,22.0,22.0,22.0,91,91,91,0.00,40.00,1,0,2,0.00
2013-12-16,44.0,34.0,26.0,32.0,28.6,24.0,95,81,62,0.00,40.00,7,3,12,0.00
2013-12-17,28.0,28.0,28.0,26.0,26.0,26.0,92,92,92,0.00,40.00,0,0,3,0.00
2013-12-18,48.0,36.3,27.0,33.0,25.2,20.0,96,68,35,0.00,40.00,7,4,14,0.00
2013-12-19,35.0,28.3,20.0,22.0,17.9,15.0,87,66,47,0.00,40.00,9,2,17,0.00
2013-12-20,24.0,22.0,20.0,18.0,17.7,17.0,87,83,77,0.00,40.00,2,1,3,0.00
2013-12-21,30.0,24.3,20.0,25.0,14.0,-99.9,91,79,78,0.00,40.00,2,1,3,0.00
2013-12-22,31.0,26.2,20.0,26.0,23.0,18.0,95,87,78,0.00,40.00,1,1,3,0.00
2013-12-23,42.0,33.4,23.0,38.0,28.9,21.0,95,83,61,0.00,40.00,5,1,12,0.00
2013-12-24,38.0,38.0,38.0,29.0,29.0,22.0,69,69,69,0.00,40.00,2,2,6,0.00
2013-12-25,25.0,23.7,23.0,23.0,22.3,22.0,95,94,91,0.00,40.00,1,1,3,0.00
2013-12-26,39.0,32.2,25.0,29.0,26.6,23.0,92,80,67,0.00,40.00,7,3,10,0.00
2013-12-27,35.0,30.8,25.0,30.0,27.4,23.0,95,87,78,0.00,40.00,5,1,9,0.00
2013-12-28,31.0,27.2,22.0,30.0,19.6,-99.9,96,88,88,0.00,40.00,6,2,13,0.00
2013-12-29,30.0,28.6,27.0,28.0,27.0,26.0,100,93,84,0.00,40.00,3,1,6,0.00
2013-12-30,35.0,31.9,29.0,29.0,28.2,27.0,92,86,78,0.00,40.00,8,1,12,0.00
2013-12-31,43.0,35.2,28.0,34.0,30.5,26.0,92,83,70,0.00,40.00,8,3,13,0.00
2014-1-1,32.0,29.8,26.0,29.0,28.1,24.0,95,93,88,0.00,40.00,9,2,13,0.00
2014-1-2,37.0,33.0,30.0,31.0,29.5,28.0,92,87,78,0.00,40.00,3,1,10,0.00